sensor_id;sensor_type;location;lat;lon;timestamp;P1;durP1;ratioP1;P2;durP2;ratioP2
2055;SDS011;1033;52.560;13.374;2023-05-07T00:02:30;17.73;;;14.38;;
2055;SDS011;1033;52.560;13.374;2023-05-07T00:05:03;18.40;;;14.30;;
2055;SDS011;1033;52.560;13.374;2023-05-07T00:07:35;15.65;;;14.00;;
2055;SDS011;1033;52.560;13.374;2023-05-07T00:10:10;18.65;;;14.55;;
2055;SDS011;1033;52.560;13.374;2023-05-07T00:12:43;18.10;;;14.95;;
2055;SDS011;1033;52.560;13.374;2023-05-07T00:15:13;19.55;;;15.40;;
2055;SDS011;1033;52.560;13.374;2023-05-07T00:17:42;16.98;;;15.18;;
2055;SDS011;1033;52.560;13.374;2023-05-07T00:20:11;17.95;;;16.10;;
2055;SDS011;1033;52.560;13.374;2023-05-07T00:22:40;19.17;;;14.50;;
2055;SDS011;1033;52.560;13.374;2023-05-07T00:25:11;14.82;;;13.32;;
2055;SDS011;1033;52.560;13.374;2023-05-07T00:27:40;21.48;;;14.52;;
2055;SDS011;1033;52.560;13.374;2023-05-07T00:30:10;15.02;;;13.32;;
2055;SDS011;1033;52.560;13.374;2023-05-07T00:32:40;16.33;;;13.70;;
2055;SDS011;1033;52.560;13.374;2023-05-07T00:35:12;15.60;;;13.38;;
2055;SDS011;1033;52.560;13.374;2023-05-07T00:37:41;16.23;;;14.25;;
2055;SDS011;1033;52.560;13.374;2023-05-07T00:40:12;17.17;;;13.85;;
2055;SDS011;1033;52.560;13.374;2023-05-07T00:42:41;15.40;;;13.80;;
2055;SDS011;1033;52.560;13.374;2023-05-07T00:45:14;16.40;;;13.88;;
2055;SDS011;1033;52.560;13.374;2023-05-07T00:47:43;17.00;;;14.75;;
2055;SDS011;1033;52.560;13.374;2023-05-07T00:50:13;13.85;;;12.45;;
2055;SDS011;1033;52.560;13.374;2023-05-07T00:52:42;15.25;;;13.65;;
2055;SDS011;1033;52.560;13.374;2023-05-07T00:55:13;16.35;;;13.00;;
2055;SDS011;1033;52.560;13.374;2023-05-07T00:57:42;17.48;;;13.90;;
2055;SDS011;1033;52.560;13.374;2023-05-07T01:00:12;14.50;;;13.00;;
2055;SDS011;1033;52.560;13.374;2023-05-07T01:02:41;15.75;;;13.77;;
2055;SDS011;1033;52.560;13.374;2023-05-07T01:05:12;15.10;;;13.32;;
2055;SDS011;1033;52.560;13.374;2023-05-07T01:07:45;15.13;;;13.50;;
2055;SDS011;1033;52.560;13.374;2023-05-07T01:10:16;14.68;;;12.27;;
2055;SDS011;1033;52.560;13.374;2023-05-07T01:12:47;14.80;;;13.02;;
2055;SDS011;1033;52.560;13.374;2023-05-07T01:15:18;16.23;;;13.88;;
2055;SDS011;1033;52.560;13.374;2023-05-07T01:17:47;16.63;;;13.60;;
2055;SDS011;1033;52.560;13.374;2023-05-07T01:20:23;16.60;;;14.20;;
2055;SDS011;1033;52.560;13.374;2023-05-07T01:22:55;18.55;;;16.60;;
2055;SDS011;1033;52.560;13.374;2023-05-07T01:25:28;16.98;;;14.95;;
2055;SDS011;1033;52.560;13.374;2023-05-07T01:28:01;18.00;;;14.00;;
2055;SDS011;1033;52.560;13.374;2023-05-07T01:30:34;16.95;;;15.07;;
2055;SDS011;1033;52.560;13.374;2023-05-07T01:33:07;17.88;;;14.18;;
2055;SDS011;1033;52.560;13.374;2023-05-07T01:35:42;17.27;;;12.60;;
2055;SDS011;1033;52.560;13.374;2023-05-07T01:38:15;15.38;;;13.77;;
2055;SDS011;1033;52.560;13.374;2023-05-07T01:40:45;18.27;;;14.10;;
2055;SDS011;1033;52.560;13.374;2023-05-07T01:43:15;15.95;;;14.00;;
2055;SDS011;1033;52.560;13.374;2023-05-07T01:45:45;19.10;;;15.43;;
2055;SDS011;1033;52.560;13.374;2023-05-07T01:48:15;15.20;;;13.60;;
2055;SDS011;1033;52.560;13.374;2023-05-07T01:50:45;15.25;;;13.63;;
2055;SDS011;1033;52.560;13.374;2023-05-07T01:53:17;18.52;;;13.80;;
2055;SDS011;1033;52.560;13.374;2023-05-07T01:55:46;14.52;;;13.10;;
2055;SDS011;1033;52.560;13.374;2023-05-07T01:58:15;13.32;;;11.70;;
2055;SDS011;1033;52.560;13.374;2023-05-07T02:00:45;16.83;;;12.05;;
2055;SDS011;1033;52.560;13.374;2023-05-07T02:03:14;15.15;;;13.13;;
2055;SDS011;1033;52.560;13.374;2023-05-07T02:05:51;16.23;;;14.52;;
2055;SDS011;1033;52.560;13.374;2023-05-07T02:08:33;16.30;;;11.80;;
2055;SDS011;1033;52.560;13.374;2023-05-07T02:11:02;14.63;;;12.73;;
2055;SDS011;1033;52.560;13.374;2023-05-07T02:13:32;15.00;;;12.68;;
2055;SDS011;1033;52.560;13.374;2023-05-07T02:16:02;15.68;;;13.32;;
2055;SDS011;1033;52.560;13.374;2023-05-07T02:18:32;17.20;;;13.32;;
2055;SDS011;1033;52.560;13.374;2023-05-07T02:21:02;14.70;;;13.10;;
2055;SDS011;1033;52.560;13.374;2023-05-07T02:23:33;13.73;;;12.30;;
2055;SDS011;1033;52.560;13.374;2023-05-07T02:26:03;16.10;;;12.80;;
2055;SDS011;1033;52.560;13.374;2023-05-07T02:28:32;19.13;;;13.38;;
2055;SDS011;1033;52.560;13.374;2023-05-07T02:31:04;13.13;;;11.63;;
2055;SDS011;1033;52.560;13.374;2023-05-07T02:33:34;14.63;;;13.00;;
2055;SDS011;1033;52.560;13.374;2023-05-07T02:36:06;16.90;;;13.75;;
2055;SDS011;1033;52.560;13.374;2023-05-07T02:38:44;14.13;;;12.32;;
2055;SDS011;1033;52.560;13.374;2023-05-07T02:41:13;15.02;;;13.10;;
2055;SDS011;1033;52.560;13.374;2023-05-07T02:43:42;17.40;;;13.63;;
2055;SDS011;1033;52.560;13.374;2023-05-07T02:46:12;19.17;;;13.63;;
2055;SDS011;1033;52.560;13.374;2023-05-07T02:48:46;14.00;;;12.60;;
2055;SDS011;1033;52.560;13.374;2023-05-07T02:51:17;15.30;;;12.60;;
2055;SDS011;1033;52.560;13.374;2023-05-07T02:53:52;16.50;;;13.23;;
2055;SDS011;1033;52.560;13.374;2023-05-07T02:56:22;15.80;;;13.23;;
2055;SDS011;1033;52.560;13.374;2023-05-07T02:58:53;17.70;;;13.18;;
2055;SDS011;1033;52.560;13.374;2023-05-07T03:01:27;15.05;;;11.95;;
2055;SDS011;1033;52.560;13.374;2023-05-07T03:04:04;13.93;;;12.38;;
2055;SDS011;1033;52.560;13.374;2023-05-07T03:06:34;13.50;;;12.10;;
2055;SDS011;1033;52.560;13.374;2023-05-07T03:09:04;15.38;;;10.90;;
2055;SDS011;1033;52.560;13.374;2023-05-07T03:11:34;12.93;;;10.73;;
2055;SDS011;1033;52.560;13.374;2023-05-07T03:14:03;14.57;;;12.40;;
2055;SDS011;1033;52.560;13.374;2023-05-07T03:16:33;14.90;;;11.25;;
2055;SDS011;1033;52.560;13.374;2023-05-07T03:19:02;12.60;;;10.98;;
2055;SDS011;1033;52.560;13.374;2023-05-07T03:21:31;12.52;;;11.10;;
2055;SDS011;1033;52.560;13.374;2023-05-07T03:24:01;14.95;;;11.13;;
2055;SDS011;1033;52.560;13.374;2023-05-07T03:26:31;14.90;;;10.95;;
2055;SDS011;1033;52.560;13.374;2023-05-07T03:29:00;12.55;;;11.10;;
2055;SDS011;1033;52.560;13.374;2023-05-07T03:31:29;12.65;;;11.30;;
2055;SDS011;1033;52.560;13.374;2023-05-07T03:34:00;12.18;;;10.80;;
2055;SDS011;1033;52.560;13.374;2023-05-07T03:36:29;12.35;;;9.98;;
2055;SDS011;1033;52.560;13.374;2023-05-07T03:38:58;13.68;;;10.93;;
2055;SDS011;1033;52.560;13.374;2023-05-07T03:41:36;10.70;;;9.70;;
2055;SDS011;1033;52.560;13.374;2023-05-07T03:44:06;12.18;;;10.50;;
2055;SDS011;1033;52.560;13.374;2023-05-07T03:46:35;12.82;;;11.07;;
2055;SDS011;1033;52.560;13.374;2023-05-07T03:49:06;13.85;;;11.45;;
2055;SDS011;1033;52.560;13.374;2023-05-07T03:51:35;13.57;;;11.98;;
2055;SDS011;1033;52.560;13.374;2023-05-07T03:54:06;14.13;;;11.20;;
2055;SDS011;1033;52.560;13.374;2023-05-07T03:56:43;12.45;;;10.80;;
2055;SDS011;1033;52.560;13.374;2023-05-07T03:59:12;12.38;;;10.65;;
2055;SDS011;1033;52.560;13.374;2023-05-07T04:01:44;12.68;;;10.35;;
2055;SDS011;1033;52.560;13.374;2023-05-07T04:04:16;12.10;;;10.27;;
2055;SDS011;1033;52.560;13.374;2023-05-07T04:06:45;12.25;;;10.18;;
2055;SDS011;1033;52.560;13.374;2023-05-07T04:09:14;10.82;;;9.90;;
2055;SDS011;1033;52.560;13.374;2023-05-07T04:11:47;12.30;;;10.70;;
2055;SDS011;1033;52.560;13.374;2023-05-07T04:14:16;11.70;;;10.60;;
2055;SDS011;1033;52.560;13.374;2023-05-07T04:16:45;10.32;;;9.32;;
2055;SDS011;1033;52.560;13.374;2023-05-07T04:19:15;11.10;;;9.98;;
2055;SDS011;1033;52.560;13.374;2023-05-07T04:21:47;10.02;;;9.02;;
2055;SDS011;1033;52.560;13.374;2023-05-07T04:24:16;11.25;;;9.85;;
2055;SDS011;1033;52.560;13.374;2023-05-07T04:26:47;11.80;;;9.20;;
2055;SDS011;1033;52.560;13.374;2023-05-07T04:29:20;10.35;;;9.35;;
2055;SDS011;1033;52.560;13.374;2023-05-07T04:31:49;9.55;;;8.38;;
2055;SDS011;1033;52.560;13.374;2023-05-07T04:34:19;13.38;;;9.70;;
2055;SDS011;1033;52.560;13.374;2023-05-07T04:36:49;13.32;;;10.70;;
2055;SDS011;1033;52.560;13.374;2023-05-07T04:39:19;11.38;;;10.05;;
2055;SDS011;1033;52.560;13.374;2023-05-07T04:41:50;14.30;;;11.13;;
2055;SDS011;1033;52.560;13.374;2023-05-07T04:44:19;13.55;;;11.18;;
2055;SDS011;1033;52.560;13.374;2023-05-07T04:46:49;11.57;;;10.23;;
2055;SDS011;1033;52.560;13.374;2023-05-07T04:49:18;11.48;;;10.00;;
2055;SDS011;1033;52.560;13.374;2023-05-07T04:51:48;13.77;;;10.02;;
2055;SDS011;1033;52.560;13.374;2023-05-07T04:54:20;12.00;;;10.18;;
2055;SDS011;1033;52.560;13.374;2023-05-07T04:56:51;13.80;;;9.52;;
2055;SDS011;1033;52.560;13.374;2023-05-07T04:59:20;9.45;;;8.50;;
2055;SDS011;1033;52.560;13.374;2023-05-07T05:01:50;12.95;;;9.50;;
2055;SDS011;1033;52.560;13.374;2023-05-07T05:04:19;11.40;;;9.43;;
2055;SDS011;1033;52.560;13.374;2023-05-07T05:06:49;11.73;;;8.98;;
2055;SDS011;1033;52.560;13.374;2023-05-07T05:09:18;8.07;;;7.32;;
2055;SDS011;1033;52.560;13.374;2023-05-07T05:11:47;9.90;;;8.88;;
2055;SDS011;1033;52.560;13.374;2023-05-07T05:14:20;10.55;;;7.78;;
2055;SDS011;1033;52.560;13.374;2023-05-07T05:17:02;9.18;;;7.32;;
2055;SDS011;1033;52.560;13.374;2023-05-07T05:19:32;11.80;;;8.02;;
2055;SDS011;1033;52.560;13.374;2023-05-07T05:22:01;9.63;;;8.63;;
2055;SDS011;1033;52.560;13.374;2023-05-07T05:24:30;8.88;;;7.97;;
2055;SDS011;1033;52.560;13.374;2023-05-07T05:27:00;10.32;;;7.40;;
2055;SDS011;1033;52.560;13.374;2023-05-07T05:29:32;11.45;;;7.65;;
2055;SDS011;1033;52.560;13.374;2023-05-07T05:32:01;9.52;;;6.95;;
2055;SDS011;1033;52.560;13.374;2023-05-07T05:34:31;9.30;;;8.38;;
2055;SDS011;1033;52.560;13.374;2023-05-07T05:37:02;10.38;;;7.82;;
2055;SDS011;1033;52.560;13.374;2023-05-07T05:39:31;10.00;;;8.40;;
2055;SDS011;1033;52.560;13.374;2023-05-07T05:42:00;9.77;;;7.30;;
2055;SDS011;1033;52.560;13.374;2023-05-07T05:44:34;12.85;;;9.27;;
2055;SDS011;1033;52.560;13.374;2023-05-07T05:47:03;11.73;;;9.63;;
2055;SDS011;1033;52.560;13.374;2023-05-07T05:49:33;11.15;;;7.57;;
2055;SDS011;1033;52.560;13.374;2023-05-07T05:52:04;9.70;;;8.80;;
2055;SDS011;1033;52.560;13.374;2023-05-07T05:54:36;10.87;;;7.63;;
2055;SDS011;1033;52.560;13.374;2023-05-07T05:57:05;11.60;;;8.67;;
2055;SDS011;1033;52.560;13.374;2023-05-07T05:59:39;11.80;;;8.70;;
2055;SDS011;1033;52.560;13.374;2023-05-07T06:02:08;9.00;;;7.60;;
2055;SDS011;1033;52.560;13.374;2023-05-07T06:04:37;9.53;;;8.63;;
2055;SDS011;1033;52.560;13.374;2023-05-07T06:07:07;9.57;;;7.70;;
2055;SDS011;1033;52.560;13.374;2023-05-07T06:09:36;8.87;;;7.27;;
2055;SDS011;1033;52.560;13.374;2023-05-07T06:12:05;8.80;;;7.90;;
2055;SDS011;1033;52.560;13.374;2023-05-07T06:14:36;8.87;;;7.97;;
2055;SDS011;1033;52.560;13.374;2023-05-07T06:17:06;11.03;;;7.97;;
2055;SDS011;1033;52.560;13.374;2023-05-07T06:19:36;9.70;;;8.70;;
2055;SDS011;1033;52.560;13.374;2023-05-07T06:22:05;9.67;;;8.10;;
2055;SDS011;1033;52.560;13.374;2023-05-07T06:24:35;9.70;;;7.60;;
2055;SDS011;1033;52.560;13.374;2023-05-07T06:27:05;10.53;;;8.10;;
2055;SDS011;1033;52.560;13.374;2023-05-07T06:29:34;8.20;;;7.00;;
2055;SDS011;1033;52.560;13.374;2023-05-07T06:32:12;8.40;;;7.47;;
2055;SDS011;1033;52.560;13.374;2023-05-07T06:34:43;8.93;;;8.00;;
2055;SDS011;1033;52.560;13.374;2023-05-07T06:37:13;8.97;;;7.60;;
2055;SDS011;1033;52.560;13.374;2023-05-07T06:39:51;8.50;;;7.20;;
2055;SDS011;1033;52.560;13.374;2023-05-07T06:42:22;8.60;;;7.90;;
2055;SDS011;1033;52.560;13.374;2023-05-07T06:44:57;8.53;;;7.50;;
2055;SDS011;1033;52.560;13.374;2023-05-07T06:47:29;8.83;;;6.97;;
2055;SDS011;1033;52.560;13.374;2023-05-07T06:49:58;11.63;;;7.73;;
2055;SDS011;1033;52.560;13.374;2023-05-07T06:52:30;8.60;;;7.20;;
2055;SDS011;1033;52.560;13.374;2023-05-07T06:55:01;9.40;;;6.83;;
2055;SDS011;1033;52.560;13.374;2023-05-07T06:57:30;8.87;;;7.90;;
2055;SDS011;1033;52.560;13.374;2023-05-07T07:00:01;13.03;;;8.00;;
2055;SDS011;1033;52.560;13.374;2023-05-07T07:02:33;7.77;;;6.93;;
2055;SDS011;1033;52.560;13.374;2023-05-07T07:05:05;8.47;;;7.60;;
2055;SDS011;1033;52.560;13.374;2023-05-07T07:07:36;9.40;;;6.67;;
2055;SDS011;1033;52.560;13.374;2023-05-07T07:10:06;7.20;;;6.53;;
2055;SDS011;1033;52.560;13.374;2023-05-07T07:12:36;12.33;;;8.63;;
2055;SDS011;1033;52.560;13.374;2023-05-07T07:15:08;8.33;;;7.30;;
2055;SDS011;1033;52.560;13.374;2023-05-07T07:17:38;6.00;;;5.40;;
2055;SDS011;1033;52.560;13.374;2023-05-07T07:20:07;7.37;;;6.10;;
2055;SDS011;1033;52.560;13.374;2023-05-07T07:22:38;7.37;;;6.37;;
2055;SDS011;1033;52.560;13.374;2023-05-07T07:25:08;6.60;;;5.97;;
2055;SDS011;1033;52.560;13.374;2023-05-07T07:27:38;9.57;;;7.70;;
2055;SDS011;1033;52.560;13.374;2023-05-07T07:30:09;7.03;;;5.43;;
2055;SDS011;1033;52.560;13.374;2023-05-07T07:32:41;6.90;;;6.20;;
2055;SDS011;1033;52.560;13.374;2023-05-07T07:35:10;6.17;;;4.73;;
2055;SDS011;1033;52.560;13.374;2023-05-07T07:37:40;6.00;;;4.80;;
2055;SDS011;1033;52.560;13.374;2023-05-07T07:40:12;7.90;;;6.13;;
2055;SDS011;1033;52.560;13.374;2023-05-07T07:42:43;6.50;;;5.43;;
2055;SDS011;1033;52.560;13.374;2023-05-07T07:45:14;6.00;;;5.40;;
2055;SDS011;1033;52.560;13.374;2023-05-07T07:47:48;6.20;;;4.90;;
2055;SDS011;1033;52.560;13.374;2023-05-07T07:50:17;7.93;;;5.90;;
2055;SDS011;1033;52.560;13.374;2023-05-07T07:53:06;6.47;;;5.47;;
2055;SDS011;1033;52.560;13.374;2023-05-07T07:55:37;8.40;;;5.53;;
2055;SDS011;1033;52.560;13.374;2023-05-07T07:58:09;7.10;;;5.03;;
2055;SDS011;1033;52.560;13.374;2023-05-07T08:00:40;5.17;;;4.67;;
2055;SDS011;1033;52.560;13.374;2023-05-07T08:03:11;4.90;;;4.40;;
2055;SDS011;1033;52.560;13.374;2023-05-07T08:05:44;4.73;;;4.23;;
2055;SDS011;1033;52.560;13.374;2023-05-07T08:08:13;5.47;;;4.87;;
2055;SDS011;1033;52.560;13.374;2023-05-07T08:10:43;4.77;;;4.10;;
2055;SDS011;1033;52.560;13.374;2023-05-07T08:13:19;4.30;;;3.90;;
2055;SDS011;1033;52.560;13.374;2023-05-07T08:15:50;8.93;;;5.33;;
2055;SDS011;1033;52.560;13.374;2023-05-07T08:18:21;4.77;;;4.27;;
2055;SDS011;1033;52.560;13.374;2023-05-07T08:20:52;4.97;;;4.43;;
2055;SDS011;1033;52.560;13.374;2023-05-07T08:23:24;5.50;;;3.90;;
2055;SDS011;1033;52.560;13.374;2023-05-07T08:25:53;4.03;;;3.63;;
2055;SDS011;1033;52.560;13.374;2023-05-07T08:28:23;8.03;;;4.87;;
2055;SDS011;1033;52.560;13.374;2023-05-07T08:30:54;5.03;;;4.10;;
2055;SDS011;1033;52.560;13.374;2023-05-07T08:33:29;6.70;;;4.90;;
2055;SDS011;1033;52.560;13.374;2023-05-07T08:36:01;7.07;;;4.27;;
2055;SDS011;1033;52.560;13.374;2023-05-07T08:38:31;6.30;;;5.80;;
2055;SDS011;1033;52.560;13.374;2023-05-07T08:41:01;4.13;;;3.73;;
2055;SDS011;1033;52.560;13.374;2023-05-07T08:43:34;5.33;;;4.27;;
2055;SDS011;1033;52.560;13.374;2023-05-07T08:46:07;4.50;;;3.77;;
2055;SDS011;1033;52.560;13.374;2023-05-07T08:48:41;4.17;;;3.63;;
2055;SDS011;1033;52.560;13.374;2023-05-07T08:51:15;4.70;;;4.17;;
2055;SDS011;1033;52.560;13.374;2023-05-07T08:53:45;4.53;;;4.07;;
2055;SDS011;1033;52.560;13.374;2023-05-07T08:56:22;4.20;;;3.50;;
2055;SDS011;1033;52.560;13.374;2023-05-07T08:58:53;5.33;;;4.73;;
2055;SDS011;1033;52.560;13.374;2023-05-07T09:01:28;5.10;;;3.80;;
2055;SDS011;1033;52.560;13.374;2023-05-07T09:03:57;4.67;;;4.27;;
2055;SDS011;1033;52.560;13.374;2023-05-07T09:06:28;6.83;;;4.17;;
2055;SDS011;1033;52.560;13.374;2023-05-07T09:08:59;5.10;;;3.80;;
2055;SDS011;1033;52.560;13.374;2023-05-07T09:11:32;5.77;;;4.27;;
2055;SDS011;1033;52.560;13.374;2023-05-07T09:14:05;6.50;;;4.00;;
2055;SDS011;1033;52.560;13.374;2023-05-07T09:16:40;3.17;;;2.50;;
2055;SDS011;1033;52.560;13.374;2023-05-07T09:19:09;4.37;;;3.60;;
2055;SDS011;1033;52.560;13.374;2023-05-07T09:21:43;4.17;;;3.77;;
2055;SDS011;1033;52.560;13.374;2023-05-07T09:24:14;6.00;;;3.90;;
2055;SDS011;1033;52.560;13.374;2023-05-07T09:26:44;4.33;;;2.77;;
2055;SDS011;1033;52.560;13.374;2023-05-07T09:29:15;5.53;;;4.07;;
2055;SDS011;1033;52.560;13.374;2023-05-07T09:31:46;4.50;;;3.83;;
2055;SDS011;1033;52.560;13.374;2023-05-07T09:34:17;3.40;;;3.00;;
2055;SDS011;1033;52.560;13.374;2023-05-07T09:36:47;4.13;;;3.83;;
2055;SDS011;1033;52.560;13.374;2023-05-07T09:39:20;6.30;;;4.63;;
2055;SDS011;1033;52.560;13.374;2023-05-07T09:41:51;4.73;;;4.43;;
2055;SDS011;1033;52.560;13.374;2023-05-07T09:44:29;4.23;;;3.40;;
2055;SDS011;1033;52.560;13.374;2023-05-07T09:47:04;4.33;;;3.93;;
2055;SDS011;1033;52.560;13.374;2023-05-07T09:49:40;3.90;;;3.47;;
2055;SDS011;1033;52.560;13.374;2023-05-07T09:52:18;3.10;;;2.77;;
2055;SDS011;1033;52.560;13.374;2023-05-07T09:54:52;4.20;;;3.50;;
2055;SDS011;1033;52.560;13.374;2023-05-07T09:57:25;3.80;;;3.40;;
2055;SDS011;1033;52.560;13.374;2023-05-07T09:59:59;3.83;;;2.97;;
2055;SDS011;1033;52.560;13.374;2023-05-07T10:02:36;3.63;;;3.03;;
2055;SDS011;1033;52.560;13.374;2023-05-07T10:05:13;3.57;;;2.70;;
2055;SDS011;1033;52.560;13.374;2023-05-07T10:07:43;3.70;;;3.40;;
2055;SDS011;1033;52.560;13.374;2023-05-07T10:10:14;5.07;;;3.57;;
2055;SDS011;1033;52.560;13.374;2023-05-07T10:12:44;3.70;;;2.83;;
2055;SDS011;1033;52.560;13.374;2023-05-07T10:15:21;7.47;;;3.47;;
2055;SDS011;1033;52.560;13.374;2023-05-07T10:17:55;5.17;;;3.20;;
2055;SDS011;1033;52.560;13.374;2023-05-07T10:20:25;4.50;;;3.10;;
2055;SDS011;1033;52.560;13.374;2023-05-07T10:22:56;7.30;;;2.97;;
2055;SDS011;1033;52.560;13.374;2023-05-07T10:25:34;3.87;;;2.80;;
2055;SDS011;1033;52.560;13.374;2023-05-07T10:28:10;2.50;;;2.30;;
2055;SDS011;1033;52.560;13.374;2023-05-07T10:30:46;3.30;;;2.40;;
2055;SDS011;1033;52.560;13.374;2023-05-07T10:33:36;4.00;;;2.93;;
2055;SDS011;1033;52.560;13.374;2023-05-07T10:36:08;3.27;;;2.50;;
2055;SDS011;1033;52.560;13.374;2023-05-07T10:38:38;2.70;;;2.30;;
2055;SDS011;1033;52.560;13.374;2023-05-07T10:41:08;2.73;;;2.53;;
2055;SDS011;1033;52.560;13.374;2023-05-07T10:43:42;3.27;;;2.40;;
2055;SDS011;1033;52.560;13.374;2023-05-07T10:46:38;2.90;;;2.70;;
2055;SDS011;1033;52.560;13.374;2023-05-07T10:49:21;2.10;;;1.90;;
2055;SDS011;1033;52.560;13.374;2023-05-07T10:52:13;3.53;;;2.70;;
2055;SDS011;1033;52.560;13.374;2023-05-07T10:55:21;3.60;;;2.67;;
2055;SDS011;1033;52.560;13.374;2023-05-07T10:58:27;4.73;;;4.23;;
2055;SDS011;1033;52.560;13.374;2023-05-07T11:01:08;4.90;;;3.30;;
2055;SDS011;1033;52.560;13.374;2023-05-07T11:10:02;3.90;;;3.13;;
2055;SDS011;1033;52.560;13.374;2023-05-07T11:12:53;3.50;;;2.90;;
2055;SDS011;1033;52.560;13.374;2023-05-07T11:15:40;5.90;;;2.93;;
2055;SDS011;1033;52.560;13.374;2023-05-07T11:18:45;3.03;;;2.67;;
2055;SDS011;1033;52.560;13.374;2023-05-07T11:21:36;2.80;;;2.27;;
2055;SDS011;1033;52.560;13.374;2023-05-07T11:24:24;2.20;;;2.00;;
2055;SDS011;1033;52.560;13.374;2023-05-07T11:27:01;4.00;;;2.40;;
2055;SDS011;1033;52.560;13.374;2023-05-07T11:29:31;3.00;;;2.50;;
2055;SDS011;1033;52.560;13.374;2023-05-07T11:32:07;4.10;;;3.00;;
2055;SDS011;1033;52.560;13.374;2023-05-07T11:34:43;2.90;;;2.20;;
2055;SDS011;1033;52.560;13.374;2023-05-07T11:37:16;2.80;;;2.60;;
2055;SDS011;1033;52.560;13.374;2023-05-07T11:39:55;6.90;;;3.47;;
2055;SDS011;1033;52.560;13.374;2023-05-07T11:42:32;2.73;;;2.50;;
2055;SDS011;1033;52.560;13.374;2023-05-07T11:45:04;5.60;;;3.23;;
2055;SDS011;1033;52.560;13.374;2023-05-07T11:47:35;3.00;;;2.60;;
2055;SDS011;1033;52.560;13.374;2023-05-07T11:50:08;2.70;;;2.10;;
2055;SDS011;1033;52.560;13.374;2023-05-07T11:52:37;2.97;;;2.30;;
2055;SDS011;1033;52.560;13.374;2023-05-07T11:55:08;2.50;;;2.20;;
2055;SDS011;1033;52.560;13.374;2023-05-07T11:57:38;3.77;;;2.60;;
2055;SDS011;1033;52.560;13.374;2023-05-07T12:00:09;2.30;;;2.10;;
2055;SDS011;1033;52.560;13.374;2023-05-07T12:02:39;5.07;;;2.67;;
2055;SDS011;1033;52.560;13.374;2023-05-07T12:05:08;2.80;;;2.50;;
2055;SDS011;1033;52.560;13.374;2023-05-07T12:07:38;2.97;;;2.60;;
2055;SDS011;1033;52.560;13.374;2023-05-07T12:10:10;2.30;;;2.03;;
2055;SDS011;1033;52.560;13.374;2023-05-07T12:12:40;3.10;;;2.60;;
2055;SDS011;1033;52.560;13.374;2023-05-07T12:15:15;2.47;;;2.23;;
2055;SDS011;1033;52.560;13.374;2023-05-07T12:17:44;3.93;;;2.67;;
2055;SDS011;1033;52.560;13.374;2023-05-07T12:20:13;2.10;;;1.90;;
2055;SDS011;1033;52.560;13.374;2023-05-07T12:22:43;4.20;;;2.47;;
2055;SDS011;1033;52.560;13.374;2023-05-07T12:25:14;4.67;;;2.87;;
2055;SDS011;1033;52.560;13.374;2023-05-07T12:27:51;4.70;;;2.00;;
2055;SDS011;1033;52.560;13.374;2023-05-07T12:30:20;2.87;;;2.53;;
2055;SDS011;1033;52.560;13.374;2023-05-07T12:32:51;3.30;;;2.20;;
2055;SDS011;1033;52.560;13.374;2023-05-07T12:35:27;6.47;;;2.37;;
2055;SDS011;1033;52.560;13.374;2023-05-07T12:37:57;3.03;;;2.53;;
2055;SDS011;1033;52.560;13.374;2023-05-07T12:40:38;2.70;;;2.30;;
2055;SDS011;1033;52.560;13.374;2023-05-07T12:43:14;2.10;;;1.73;;
2055;SDS011;1033;52.560;13.374;2023-05-07T12:45:44;2.10;;;1.90;;
2055;SDS011;1033;52.560;13.374;2023-05-07T12:48:16;3.27;;;2.33;;
2055;SDS011;1033;52.560;13.374;2023-05-07T12:50:48;4.07;;;2.00;;
2055;SDS011;1033;52.560;13.374;2023-05-07T12:53:19;2.50;;;2.27;;
2055;SDS011;1033;52.560;13.374;2023-05-07T12:55:52;3.03;;;2.17;;
2055;SDS011;1033;52.560;13.374;2023-05-07T12:58:24;3.90;;;2.57;;
2055;SDS011;1033;52.560;13.374;2023-05-07T13:00:55;3.97;;;2.30;;
2055;SDS011;1033;52.560;13.374;2023-05-07T13:03:27;2.77;;;2.10;;
2055;SDS011;1033;52.560;13.374;2023-05-07T13:05:57;1.97;;;1.63;;
2055;SDS011;1033;52.560;13.374;2023-05-07T13:08:29;2.80;;;2.13;;
2055;SDS011;1033;52.560;13.374;2023-05-07T13:11:01;2.30;;;1.97;;
2055;SDS011;1033;52.560;13.374;2023-05-07T13:13:31;3.20;;;2.30;;
2055;SDS011;1033;52.560;13.374;2023-05-07T13:16:01;2.20;;;2.00;;
2055;SDS011;1033;52.560;13.374;2023-05-07T13:18:32;2.20;;;1.97;;
2055;SDS011;1033;52.560;13.374;2023-05-07T13:21:02;2.13;;;1.70;;
2055;SDS011;1033;52.560;13.374;2023-05-07T13:23:32;3.70;;;2.20;;
2055;SDS011;1033;52.560;13.374;2023-05-07T13:26:03;3.27;;;2.40;;
2055;SDS011;1033;52.560;13.374;2023-05-07T13:28:51;4.03;;;2.57;;
2055;SDS011;1033;52.560;13.374;2023-05-07T13:31:21;3.20;;;2.00;;
2055;SDS011;1033;52.560;13.374;2023-05-07T13:33:50;3.37;;;2.30;;
2055;SDS011;1033;52.560;13.374;2023-05-07T13:36:19;2.70;;;1.90;;
2055;SDS011;1033;52.560;13.374;2023-05-07T13:38:48;2.87;;;2.33;;
2055;SDS011;1033;52.560;13.374;2023-05-07T13:41:19;3.83;;;2.10;;
2055;SDS011;1033;52.560;13.374;2023-05-07T13:43:48;3.00;;;1.93;;
2055;SDS011;1033;52.560;13.374;2023-05-07T13:46:18;3.47;;;2.03;;
2055;SDS011;1033;52.560;13.374;2023-05-07T13:48:47;3.23;;;2.30;;
2055;SDS011;1033;52.560;13.374;2023-05-07T13:51:17;4.23;;;2.00;;
2055;SDS011;1033;52.560;13.374;2023-05-07T13:53:47;2.97;;;2.10;;
2055;SDS011;1033;52.560;13.374;2023-05-07T13:56:16;4.50;;;2.20;;
2055;SDS011;1033;52.560;13.374;2023-05-07T13:58:48;2.67;;;2.37;;
2055;SDS011;1033;52.560;13.374;2023-05-07T14:01:26;2.30;;;1.90;;
2055;SDS011;1033;52.560;13.374;2023-05-07T14:03:55;3.10;;;2.10;;
2055;SDS011;1033;52.560;13.374;2023-05-07T14:06:26;2.90;;;2.60;;
2055;SDS011;1033;52.560;13.374;2023-05-07T14:08:55;6.03;;;2.90;;
2055;SDS011;1033;52.560;13.374;2023-05-07T14:11:24;4.53;;;2.30;;
2055;SDS011;1033;52.560;13.374;2023-05-07T14:13:57;5.27;;;2.40;;
2055;SDS011;1033;52.560;13.374;2023-05-07T14:16:26;4.07;;;2.40;;
2055;SDS011;1033;52.560;13.374;2023-05-07T14:18:55;3.10;;;2.23;;
2055;SDS011;1033;52.560;13.374;2023-05-07T14:21:24;3.20;;;2.40;;
2055;SDS011;1033;52.560;13.374;2023-05-07T14:23:54;3.80;;;2.40;;
2055;SDS011;1033;52.560;13.374;2023-05-07T14:26:24;3.00;;;2.27;;
2055;SDS011;1033;52.560;13.374;2023-05-07T14:28:54;2.47;;;2.27;;
2055;SDS011;1033;52.560;13.374;2023-05-07T14:31:25;2.80;;;2.23;;
2055;SDS011;1033;52.560;13.374;2023-05-07T14:33:54;2.00;;;1.80;;
2055;SDS011;1033;52.560;13.374;2023-05-07T14:36:25;2.57;;;2.13;;
2055;SDS011;1033;52.560;13.374;2023-05-07T14:38:54;2.90;;;2.20;;
2055;SDS011;1033;52.560;13.374;2023-05-07T14:41:25;2.50;;;2.20;;
2055;SDS011;1033;52.560;13.374;2023-05-07T14:43:54;3.40;;;3.10;;
2055;SDS011;1033;52.560;13.374;2023-05-07T14:46:25;4.20;;;2.50;;
2055;SDS011;1033;52.560;13.374;2023-05-07T14:48:54;2.47;;;2.10;;
2055;SDS011;1033;52.560;13.374;2023-05-07T14:51:24;4.87;;;2.47;;
2055;SDS011;1033;52.560;13.374;2023-05-07T14:53:54;4.23;;;2.67;;
2055;SDS011;1033;52.560;13.374;2023-05-07T14:56:23;3.10;;;1.97;;
2055;SDS011;1033;52.560;13.374;2023-05-07T14:58:52;2.57;;;1.93;;
2055;SDS011;1033;52.560;13.374;2023-05-07T15:01:25;4.80;;;2.77;;
2055;SDS011;1033;52.560;13.374;2023-05-07T15:03:54;2.43;;;2.03;;
2055;SDS011;1033;52.560;13.374;2023-05-07T15:06:23;2.27;;;2.07;;
2055;SDS011;1033;52.560;13.374;2023-05-07T15:08:53;2.30;;;2.10;;
2055;SDS011;1033;52.560;13.374;2023-05-07T15:11:22;2.90;;;2.20;;
2055;SDS011;1033;52.560;13.374;2023-05-07T15:13:51;3.83;;;1.87;;
2055;SDS011;1033;52.560;13.374;2023-05-07T15:16:22;3.20;;;2.07;;
2055;SDS011;1033;52.560;13.374;2023-05-07T15:18:51;2.30;;;1.80;;
2055;SDS011;1033;52.560;13.374;2023-05-07T15:21:21;2.27;;;1.67;;
2055;SDS011;1033;52.560;13.374;2023-05-07T15:23:51;2.50;;;2.07;;
2055;SDS011;1033;52.560;13.374;2023-05-07T15:26:20;3.00;;;2.13;;
2055;SDS011;1033;52.560;13.374;2023-05-07T15:28:49;4.53;;;2.07;;